Kezdőlap
METAR-TAF:

METAR-TAF

Repülőterek :

Aupaluk, Québec, Kanada

földrajzi szélesség: 59-17-48N, földrajzi hosszúság: 069-35-59W, magasság: 35 m

Jelenlegi meteorológiai megfigyelések

A jelentés 57 perccel ezelõtt készült, 18:00 UTC
Északnyugati szél 10 kt széllökések: 15 kt
Hőmérséklet -25°C
Páratartalom 69%
Légköri nyomás 1002 hPa
Látótávolság: 8.0 km
Kevés felhő 3200 lábon
Szakadozott felhőzet 4300 lábon
Borult 25000 lábon
enyhe havazás

METAR: CYLA 191800Z 32010G15KT 5SM -SN FEW032 BKN043 OVC250 M25/M29 A2960 RMK SC1SC5CS3 SC TR SLP031

Idő: 13:57 (18:57 UTC)


TAF: hiányzik

Meteorológiai megfigyelések és előrejelzések több, mint 4000 repülőtéren (METAR és TAF jelentéseket).

A térképen piros és sárga pontok jelzik az elérhető meteorológiai állomásokat.

Mozgassa az egeret a pont fölött, hogy megjelenjen az állomás neve.

Azután kattintson az időjárási megfigyelések és előrejelzések megtekintéséhez.

A térkép megváltoztatása: kattintson a fekete keresztel jelölt zöld gombra ráközelítéshez, a vonallal jelölt zöld gombra távolításhoz, vagy a zöld nyilakra a szomszédos térképek eléréséhez.


METAR-TAF: